sensor_id;sensor_type;location;lat;lon;timestamp;P1;durP1;ratioP1;P2;durP2;ratioP2
16667;SDS011;8447;52.630;4.734;2023-06-19T00:01:39;6.77;;;6.13;;
16667;SDS011;8447;52.630;4.734;2023-06-19T00:04:06;7.20;;;5.87;;
16667;SDS011;8447;52.630;4.734;2023-06-19T00:06:32;7.37;;;5.97;;
16667;SDS011;8447;52.630;4.734;2023-06-19T00:08:59;7.83;;;7.03;;
16667;SDS011;8447;52.630;4.734;2023-06-19T00:11:25;7.90;;;6.30;;
16667;SDS011;8447;52.630;4.734;2023-06-19T00:13:53;8.37;;;7.30;;
16667;SDS011;8447;52.630;4.734;2023-06-19T00:16:19;9.13;;;7.10;;
16667;SDS011;8447;52.630;4.734;2023-06-19T00:18:46;9.33;;;7.07;;
16667;SDS011;8447;52.630;4.734;2023-06-19T00:21:12;8.00;;;6.43;;
16667;SDS011;8447;52.630;4.734;2023-06-19T00:23:39;7.50;;;6.70;;
16667;SDS011;8447;52.630;4.734;2023-06-19T00:26:05;7.30;;;6.60;;
16667;SDS011;8447;52.630;4.734;2023-06-19T00:28:31;8.60;;;7.57;;
16667;SDS011;8447;52.630;4.734;2023-06-19T00:30:59;8.50;;;6.77;;
16667;SDS011;8447;52.630;4.734;2023-06-19T00:33:26;7.00;;;6.17;;
16667;SDS011;8447;52.630;4.734;2023-06-19T00:35:54;10.13;;;6.63;;
16667;SDS011;8447;52.630;4.734;2023-06-19T00:38:20;7.23;;;6.50;;
16667;SDS011;8447;52.630;4.734;2023-06-19T00:40:47;10.67;;;7.00;;
16667;SDS011;8447;52.630;4.734;2023-06-19T00:43:13;6.73;;;6.07;;
16667;SDS011;8447;52.630;4.734;2023-06-19T00:45:40;7.87;;;7.03;;
16667;SDS011;8447;52.630;4.734;2023-06-19T00:48:07;7.37;;;6.57;;
16667;SDS011;8447;52.630;4.734;2023-06-19T00:50:34;7.67;;;5.87;;
16667;SDS011;8447;52.630;4.734;2023-06-19T00:53:02;5.87;;;5.13;;
16667;SDS011;8447;52.630;4.734;2023-06-19T00:55:29;7.07;;;6.03;;
16667;SDS011;8447;52.630;4.734;2023-06-19T00:57:56;6.17;;;5.57;;
16667;SDS011;8447;52.630;4.734;2023-06-19T01:00:24;7.17;;;6.07;;
16667;SDS011;8447;52.630;4.734;2023-06-19T01:02:50;7.53;;;6.10;;
16667;SDS011;8447;52.630;4.734;2023-06-19T01:05:18;9.27;;;5.60;;
16667;SDS011;8447;52.630;4.734;2023-06-19T01:07:45;9.47;;;5.90;;
16667;SDS011;8447;52.630;4.734;2023-06-19T01:10:15;5.60;;;4.80;;
16667;SDS011;8447;52.630;4.734;2023-06-19T01:12:45;5.90;;;5.30;;
16667;SDS011;8447;52.630;4.734;2023-06-19T01:15:15;6.93;;;4.87;;
16667;SDS011;8447;52.630;4.734;2023-06-19T01:17:42;6.83;;;4.83;;
16667;SDS011;8447;52.630;4.734;2023-06-19T01:20:10;10.43;;;4.97;;
16667;SDS011;8447;52.630;4.734;2023-06-19T01:22:38;5.13;;;4.50;;
16667;SDS011;8447;52.630;4.734;2023-06-19T01:25:05;7.23;;;4.37;;
16667;SDS011;8447;52.630;4.734;2023-06-19T01:27:31;5.13;;;4.33;;
16667;SDS011;8447;52.630;4.734;2023-06-19T01:29:58;4.13;;;3.70;;
16667;SDS011;8447;52.630;4.734;2023-06-19T01:32:27;4.33;;;3.93;;
16667;SDS011;8447;52.630;4.734;2023-06-19T01:34:56;5.50;;;3.83;;
16667;SDS011;8447;52.630;4.734;2023-06-19T01:37:24;3.73;;;3.13;;
16667;SDS011;8447;52.630;4.734;2023-06-19T01:39:54;4.10;;;3.23;;
16667;SDS011;8447;52.630;4.734;2023-06-19T01:42:21;4.67;;;3.30;;
16667;SDS011;8447;52.630;4.734;2023-06-19T01:44:48;4.20;;;2.87;;
16667;SDS011;8447;52.630;4.734;2023-06-19T01:47:16;5.40;;;3.43;;
16667;SDS011;8447;52.630;4.734;2023-06-19T01:49:45;3.47;;;3.00;;
16667;SDS011;8447;52.630;4.734;2023-06-19T01:52:11;3.20;;;2.90;;
16667;SDS011;8447;52.630;4.734;2023-06-19T01:54:38;3.23;;;2.77;;
16667;SDS011;8447;52.630;4.734;2023-06-19T01:57:06;4.77;;;2.87;;
16667;SDS011;8447;52.630;4.734;2023-06-19T01:59:32;3.33;;;2.20;;
16667;SDS011;8447;52.630;4.734;2023-06-19T02:01:59;7.60;;;2.70;;
16667;SDS011;8447;52.630;4.734;2023-06-19T02:04:25;5.03;;;2.07;;
16667;SDS011;8447;52.630;4.734;2023-06-19T02:06:51;2.90;;;2.07;;
16667;SDS011;8447;52.630;4.734;2023-06-19T02:09:18;4.67;;;1.90;;
16667;SDS011;8447;52.630;4.734;2023-06-19T02:11:44;3.87;;;1.53;;
16667;SDS011;8447;52.630;4.734;2023-06-19T02:14:12;1.73;;;1.50;;
16667;SDS011;8447;52.630;4.734;2023-06-19T02:16:38;2.83;;;1.77;;
16667;SDS011;8447;52.630;4.734;2023-06-19T02:19:05;2.50;;;1.60;;
16667;SDS011;8447;52.630;4.734;2023-06-19T02:21:31;3.20;;;1.90;;
16667;SDS011;8447;52.630;4.734;2023-06-19T02:23:58;2.00;;;1.80;;
16667;SDS011;8447;52.630;4.734;2023-06-19T02:26:24;2.27;;;1.77;;
16667;SDS011;8447;52.630;4.734;2023-06-19T02:28:52;3.10;;;1.97;;
16667;SDS011;8447;52.630;4.734;2023-06-19T02:31:20;2.60;;;2.20;;
16667;SDS011;8447;52.630;4.734;2023-06-19T02:33:47;2.70;;;2.40;;
16667;SDS011;8447;52.630;4.734;2023-06-19T02:36:13;2.87;;;2.33;;
16667;SDS011;8447;52.630;4.734;2023-06-19T02:38:44;5.73;;;2.80;;
16667;SDS011;8447;52.630;4.734;2023-06-19T02:41:10;3.60;;;2.30;;
16667;SDS011;8447;52.630;4.734;2023-06-19T02:43:37;2.97;;;2.67;;
16667;SDS011;8447;52.630;4.734;2023-06-19T02:46:03;3.70;;;3.00;;
16667;SDS011;8447;52.630;4.734;2023-06-19T02:48:31;3.10;;;2.77;;
16667;SDS011;8447;52.630;4.734;2023-06-19T02:50:57;3.83;;;3.43;;
16667;SDS011;8447;52.630;4.734;2023-06-19T02:53:23;5.23;;;3.60;;
16667;SDS011;8447;52.630;4.734;2023-06-19T02:55:50;4.23;;;3.83;;
16667;SDS011;8447;52.630;4.734;2023-06-19T02:58:16;4.90;;;4.47;;
16667;SDS011;8447;52.630;4.734;2023-06-19T03:00:43;5.10;;;4.53;;
16667;SDS011;8447;52.630;4.734;2023-06-19T03:03:09;5.33;;;4.33;;
16667;SDS011;8447;52.630;4.734;2023-06-19T03:05:38;8.83;;;7.60;;
16667;SDS011;8447;52.630;4.734;2023-06-19T03:08:04;9.23;;;7.93;;
16667;SDS011;8447;52.630;4.734;2023-06-19T03:10:32;8.83;;;7.93;;
16667;SDS011;8447;52.630;4.734;2023-06-19T03:12:58;11.87;;;8.37;;
16667;SDS011;8447;52.630;4.734;2023-06-19T03:15:25;10.03;;;9.00;;
16667;SDS011;8447;52.630;4.734;2023-06-19T03:17:52;8.77;;;7.83;;
16667;SDS011;8447;52.630;4.734;2023-06-19T03:20:18;10.80;;;9.70;;
16667;SDS011;8447;52.630;4.734;2023-06-19T03:22:47;11.60;;;10.40;;
16667;SDS011;8447;52.630;4.734;2023-06-19T03:25:13;10.80;;;8.87;;
16667;SDS011;8447;52.630;4.734;2023-06-19T03:27:40;11.23;;;10.03;;
16667;SDS011;8447;52.630;4.734;2023-06-19T03:30:06;9.23;;;8.23;;
16667;SDS011;8447;52.630;4.734;2023-06-19T03:32:33;10.37;;;9.10;;
16667;SDS011;8447;52.630;4.734;2023-06-19T03:35:01;12.17;;;11.00;;
16667;SDS011;8447;52.630;4.734;2023-06-19T03:37:27;14.43;;;12.10;;
16667;SDS011;8447;52.630;4.734;2023-06-19T03:39:55;12.30;;;11.10;;
16667;SDS011;8447;52.630;4.734;2023-06-19T03:42:22;11.27;;;10.10;;
16667;SDS011;8447;52.630;4.734;2023-06-19T03:44:48;10.87;;;9.77;;
16667;SDS011;8447;52.630;4.734;2023-06-19T03:47:15;13.60;;;11.07;;
16667;SDS011;8447;52.630;4.734;2023-06-19T03:49:41;10.07;;;9.10;;
16667;SDS011;8447;52.630;4.734;2023-06-19T03:52:08;14.90;;;9.57;;
16667;SDS011;8447;52.630;4.734;2023-06-19T03:54:34;12.17;;;10.90;;
16667;SDS011;8447;52.630;4.734;2023-06-19T03:57:02;16.47;;;12.00;;
16667;SDS011;8447;52.630;4.734;2023-06-19T03:59:28;15.20;;;10.67;;
16667;SDS011;8447;52.630;4.734;2023-06-19T04:01:54;9.73;;;6.07;;
16667;SDS011;8447;52.630;4.734;2023-06-19T04:04:21;17.40;;;12.37;;
16667;SDS011;8447;52.630;4.734;2023-06-19T04:06:47;16.83;;;11.07;;
16667;SDS011;8447;52.630;4.734;2023-06-19T04:09:13;14.67;;;10.57;;
16667;SDS011;8447;52.630;4.734;2023-06-19T04:11:40;20.40;;;13.27;;
16667;SDS011;8447;52.630;4.734;2023-06-19T04:14:08;13.37;;;9.33;;
16667;SDS011;8447;52.630;4.734;2023-06-19T04:16:34;9.93;;;6.47;;
16667;SDS011;8447;52.630;4.734;2023-06-19T04:19:01;13.47;;;8.90;;
16667;SDS011;8447;52.630;4.734;2023-06-19T04:21:27;15.07;;;11.33;;
16667;SDS011;8447;52.630;4.734;2023-06-19T04:23:53;8.90;;;7.93;;
16667;SDS011;8447;52.630;4.734;2023-06-19T04:26:20;20.80;;;11.67;;
16667;SDS011;8447;52.630;4.734;2023-06-19T04:28:47;17.80;;;13.00;;
16667;SDS011;8447;52.630;4.734;2023-06-19T04:31:15;22.40;;;17.83;;
16667;SDS011;8447;52.630;4.734;2023-06-19T04:33:43;24.17;;;16.00;;
16667;SDS011;8447;52.630;4.734;2023-06-19T04:36:10;29.20;;;20.63;;
16667;SDS011;8447;52.630;4.734;2023-06-19T04:38:36;33.23;;;19.53;;
16667;SDS011;8447;52.630;4.734;2023-06-19T04:41:02;26.97;;;17.87;;
16667;SDS011;8447;52.630;4.734;2023-06-19T04:43:29;38.97;;;24.93;;
16667;SDS011;8447;52.630;4.734;2023-06-19T04:45:55;26.27;;;15.00;;
16667;SDS011;8447;52.630;4.734;2023-06-19T04:48:23;36.40;;;26.30;;
16667;SDS011;8447;52.630;4.734;2023-06-19T04:50:51;35.57;;;22.57;;
16667;SDS011;8447;52.630;4.734;2023-06-19T04:53:17;23.00;;;12.97;;
16667;SDS011;8447;52.630;4.734;2023-06-19T04:55:44;36.50;;;21.40;;
16667;SDS011;8447;52.630;4.734;2023-06-19T04:58:10;32.33;;;16.93;;
16667;SDS011;8447;52.630;4.734;2023-06-19T05:00:36;19.50;;;11.20;;
16667;SDS011;8447;52.630;4.734;2023-06-19T05:03:03;35.97;;;15.37;;
16667;SDS011;8447;52.630;4.734;2023-06-19T05:05:31;48.00;;;25.60;;
16667;SDS011;8447;52.630;4.734;2023-06-19T05:07:59;36.03;;;18.73;;
16667;SDS011;8447;52.630;4.734;2023-06-19T05:10:25;38.67;;;20.93;;
16667;SDS011;8447;52.630;4.734;2023-06-19T05:12:52;43.80;;;23.60;;
16667;SDS011;8447;52.630;4.734;2023-06-19T05:15:18;41.03;;;21.83;;
16667;SDS011;8447;52.630;4.734;2023-06-19T05:17:45;43.47;;;24.30;;
16667;SDS011;8447;52.630;4.734;2023-06-19T05:20:11;47.20;;;24.30;;
16667;SDS011;8447;52.630;4.734;2023-06-19T05:22:39;28.57;;;14.47;;
16667;SDS011;8447;52.630;4.734;2023-06-19T05:25:06;40.77;;;24.33;;
16667;SDS011;8447;52.630;4.734;2023-06-19T05:27:32;39.93;;;21.13;;
16667;SDS011;8447;52.630;4.734;2023-06-19T05:29:59;38.17;;;21.60;;
16667;SDS011;8447;52.630;4.734;2023-06-19T05:32:25;27.10;;;17.17;;
16667;SDS011;8447;52.630;4.734;2023-06-19T05:34:52;32.70;;;18.43;;
16667;SDS011;8447;52.630;4.734;2023-06-19T05:37:19;32.63;;;17.27;;
16667;SDS011;8447;52.630;4.734;2023-06-19T05:39:48;25.63;;;12.30;;
16667;SDS011;8447;52.630;4.734;2023-06-19T05:42:14;24.57;;;14.70;;
16667;SDS011;8447;52.630;4.734;2023-06-19T05:44:41;17.10;;;9.47;;
16667;SDS011;8447;52.630;4.734;2023-06-19T05:47:10;15.93;;;10.67;;
16667;SDS011;8447;52.630;4.734;2023-06-19T05:49:36;14.83;;;10.10;;
16667;SDS011;8447;52.630;4.734;2023-06-19T05:52:03;18.67;;;10.23;;
16667;SDS011;8447;52.630;4.734;2023-06-19T05:54:29;12.70;;;7.50;;
16667;SDS011;8447;52.630;4.734;2023-06-19T05:56:57;12.50;;;7.33;;
16667;SDS011;8447;52.630;4.734;2023-06-19T05:59:23;8.40;;;5.57;;
16667;SDS011;8447;52.630;4.734;2023-06-19T06:01:50;12.20;;;6.43;;
16667;SDS011;8447;52.630;4.734;2023-06-19T06:04:18;11.87;;;6.03;;
16667;SDS011;8447;52.630;4.734;2023-06-19T06:06:46;8.60;;;5.23;;
16667;SDS011;8447;52.630;4.734;2023-06-19T06:09:13;11.23;;;6.20;;
16667;SDS011;8447;52.630;4.734;2023-06-19T06:11:41;6.50;;;4.33;;
16667;SDS011;8447;52.630;4.734;2023-06-19T06:14:10;11.67;;;5.10;;
16667;SDS011;8447;52.630;4.734;2023-06-19T06:16:36;7.70;;;5.07;;
16667;SDS011;8447;52.630;4.734;2023-06-19T06:19:03;8.77;;;5.67;;
16667;SDS011;8447;52.630;4.734;2023-06-19T06:21:29;11.13;;;5.23;;
16667;SDS011;8447;52.630;4.734;2023-06-19T06:23:55;13.03;;;5.13;;
16667;SDS011;8447;52.630;4.734;2023-06-19T06:26:22;9.53;;;5.07;;
16667;SDS011;8447;52.630;4.734;2023-06-19T06:28:48;9.17;;;5.53;;
16667;SDS011;8447;52.630;4.734;2023-06-19T06:31:16;10.83;;;4.67;;
16667;SDS011;8447;52.630;4.734;2023-06-19T06:33:42;12.87;;;7.03;;
16667;SDS011;8447;52.630;4.734;2023-06-19T06:36:09;11.03;;;5.03;;
16667;SDS011;8447;52.630;4.734;2023-06-19T06:38:35;8.93;;;5.43;;
16667;SDS011;8447;52.630;4.734;2023-06-19T06:41:02;14.73;;;8.20;;
16667;SDS011;8447;52.630;4.734;2023-06-19T06:43:28;13.63;;;7.03;;
16667;SDS011;8447;52.630;4.734;2023-06-19T06:45:54;12.37;;;6.33;;
16667;SDS011;8447;52.630;4.734;2023-06-19T06:48:22;12.10;;;7.03;;
16667;SDS011;8447;52.630;4.734;2023-06-19T06:50:48;12.37;;;6.60;;
16667;SDS011;8447;52.630;4.734;2023-06-19T06:53:15;12.87;;;6.77;;
16667;SDS011;8447;52.630;4.734;2023-06-19T06:55:41;13.97;;;7.57;;
16667;SDS011;8447;52.630;4.734;2023-06-19T06:58:07;12.17;;;5.70;;
16667;SDS011;8447;52.630;4.734;2023-06-19T07:00:34;11.43;;;6.30;;
16667;SDS011;8447;52.630;4.734;2023-06-19T07:03:00;12.57;;;7.00;;
16667;SDS011;8447;52.630;4.734;2023-06-19T07:05:28;10.27;;;6.13;;
16667;SDS011;8447;52.630;4.734;2023-06-19T07:07:55;13.87;;;7.57;;
16667;SDS011;8447;52.630;4.734;2023-06-19T07:10:21;12.37;;;7.60;;
16667;SDS011;8447;52.630;4.734;2023-06-19T07:12:47;15.23;;;5.83;;
16667;SDS011;8447;52.630;4.734;2023-06-19T07:15:15;10.77;;;6.73;;
16667;SDS011;8447;52.630;4.734;2023-06-19T07:17:41;14.63;;;6.57;;
16667;SDS011;8447;52.630;4.734;2023-06-19T07:20:08;14.03;;;6.80;;
16667;SDS011;8447;52.630;4.734;2023-06-19T07:22:36;9.20;;;6.97;;
16667;SDS011;8447;52.630;4.734;2023-06-19T07:25:02;10.97;;;6.40;;
16667;SDS011;8447;52.630;4.734;2023-06-19T07:27:29;16.27;;;6.93;;
16667;SDS011;8447;52.630;4.734;2023-06-19T07:29:56;15.90;;;8.03;;
16667;SDS011;8447;52.630;4.734;2023-06-19T07:32:22;14.73;;;7.87;;
16667;SDS011;8447;52.630;4.734;2023-06-19T07:34:49;10.47;;;5.73;;
16667;SDS011;8447;52.630;4.734;2023-06-19T07:37:15;17.10;;;7.83;;
16667;SDS011;8447;52.630;4.734;2023-06-19T07:39:44;10.67;;;7.33;;
16667;SDS011;8447;52.630;4.734;2023-06-19T07:42:11;16.30;;;10.13;;
16667;SDS011;8447;52.630;4.734;2023-06-19T07:44:37;12.53;;;7.60;;
16667;SDS011;8447;52.630;4.734;2023-06-19T07:47:03;17.00;;;9.77;;
16667;SDS011;8447;52.630;4.734;2023-06-19T07:49:30;17.13;;;10.73;;
16667;SDS011;8447;52.630;4.734;2023-06-19T07:51:56;14.17;;;9.80;;
16667;SDS011;8447;52.630;4.734;2023-06-19T07:54:23;14.27;;;9.60;;
16667;SDS011;8447;52.630;4.734;2023-06-19T07:56:50;15.47;;;8.10;;
16667;SDS011;8447;52.630;4.734;2023-06-19T07:59:17;13.23;;;8.17;;
16667;SDS011;8447;52.630;4.734;2023-06-19T08:01:43;13.37;;;10.10;;
16667;SDS011;8447;52.630;4.734;2023-06-19T08:04:10;15.13;;;10.13;;
16667;SDS011;8447;52.630;4.734;2023-06-19T08:06:36;14.93;;;10.77;;
16667;SDS011;8447;52.630;4.734;2023-06-19T08:09:02;11.40;;;8.83;;
16667;SDS011;8447;52.630;4.734;2023-06-19T08:11:29;14.43;;;8.50;;
16667;SDS011;8447;52.630;4.734;2023-06-19T08:13:57;13.90;;;8.57;;
16667;SDS011;8447;52.630;4.734;2023-06-19T08:16:24;18.73;;;10.87;;
16667;SDS011;8447;52.630;4.734;2023-06-19T08:18:50;14.10;;;8.87;;
16667;SDS011;8447;52.630;4.734;2023-06-19T08:21:17;13.33;;;8.60;;
16667;SDS011;8447;52.630;4.734;2023-06-19T08:23:45;13.40;;;8.53;;
16667;SDS011;8447;52.630;4.734;2023-06-19T08:26:11;15.67;;;12.33;;
16667;SDS011;8447;52.630;4.734;2023-06-19T08:28:38;13.17;;;9.43;;
16667;SDS011;8447;52.630;4.734;2023-06-19T08:31:06;15.50;;;8.80;;
16667;SDS011;8447;52.630;4.734;2023-06-19T08:33:33;14.10;;;10.90;;
16667;SDS011;8447;52.630;4.734;2023-06-19T08:36:00;16.30;;;9.67;;
16667;SDS011;8447;52.630;4.734;2023-06-19T08:38:26;20.47;;;12.80;;
16667;SDS011;8447;52.630;4.734;2023-06-19T08:40:53;14.30;;;9.80;;
16667;SDS011;8447;52.630;4.734;2023-06-19T08:43:20;14.30;;;10.57;;
16667;SDS011;8447;52.630;4.734;2023-06-19T08:45:52;18.03;;;11.77;;
16667;SDS011;8447;52.630;4.734;2023-06-19T08:48:20;17.57;;;11.20;;
16667;SDS011;8447;52.630;4.734;2023-06-19T08:50:46;10.33;;;7.17;;
16667;SDS011;8447;52.630;4.734;2023-06-19T08:53:13;13.60;;;10.27;;
16667;SDS011;8447;52.630;4.734;2023-06-19T08:55:39;11.67;;;6.63;;
16667;SDS011;8447;52.630;4.734;2023-06-19T08:58:05;12.53;;;9.10;;
16667;SDS011;8447;52.630;4.734;2023-06-19T09:00:32;14.03;;;10.30;;
16667;SDS011;8447;52.630;4.734;2023-06-19T09:03:00;13.37;;;9.87;;
16667;SDS011;8447;52.630;4.734;2023-06-19T09:05:29;17.13;;;10.83;;
16667;SDS011;8447;52.630;4.734;2023-06-19T09:07:56;11.97;;;10.23;;
16667;SDS011;8447;52.630;4.734;2023-06-19T09:10:23;15.63;;;10.10;;
16667;SDS011;8447;52.630;4.734;2023-06-19T09:12:56;12.07;;;7.87;;
16667;SDS011;8447;52.630;4.734;2023-06-19T09:15:23;18.23;;;10.07;;
16667;SDS011;8447;52.630;4.734;2023-06-19T09:17:59;17.10;;;9.93;;
16667;SDS011;8447;52.630;4.734;2023-06-19T09:20:26;15.47;;;9.73;;
16667;SDS011;8447;52.630;4.734;2023-06-19T09:22:55;12.40;;;8.50;;
16667;SDS011;8447;52.630;4.734;2023-06-19T09:25:21;13.13;;;8.47;;
16667;SDS011;8447;52.630;4.734;2023-06-19T09:27:49;11.27;;;7.50;;
16667;SDS011;8447;52.630;4.734;2023-06-19T09:30:16;9.97;;;5.47;;
16667;SDS011;8447;52.630;4.734;2023-06-19T09:32:42;10.17;;;6.67;;
16667;SDS011;8447;52.630;4.734;2023-06-19T09:35:09;9.30;;;6.03;;
16667;SDS011;8447;52.630;4.734;2023-06-19T09:37:35;13.27;;;8.30;;
16667;SDS011;8447;52.630;4.734;2023-06-19T09:40:06;10.33;;;6.33;;
16667;SDS011;8447;52.630;4.734;2023-06-19T09:42:36;8.93;;;6.37;;
16667;SDS011;8447;52.630;4.734;2023-06-19T09:45:04;11.33;;;7.90;;
16667;SDS011;8447;52.630;4.734;2023-06-19T09:47:31;14.93;;;8.77;;
16667;SDS011;8447;52.630;4.734;2023-06-19T09:49:57;11.10;;;7.90;;
16667;SDS011;8447;52.630;4.734;2023-06-19T09:52:25;11.27;;;7.87;;
16667;SDS011;8447;52.630;4.734;2023-06-19T09:54:53;12.70;;;6.27;;
16667;SDS011;8447;52.630;4.734;2023-06-19T09:57:21;10.83;;;7.70;;
16667;SDS011;8447;52.630;4.734;2023-06-19T09:59:48;10.83;;;7.03;;
16667;SDS011;8447;52.630;4.734;2023-06-19T10:02:16;9.03;;;5.20;;
16667;SDS011;8447;52.630;4.734;2023-06-19T10:04:43;12.40;;;8.80;;
16667;SDS011;8447;52.630;4.734;2023-06-19T10:07:17;14.20;;;8.13;;
16667;SDS011;8447;52.630;4.734;2023-06-19T10:12:39;9.43;;;5.60;;
16667;SDS011;8447;52.630;4.734;2023-06-19T10:15:09;13.67;;;7.10;;
16667;SDS011;8447;52.630;4.734;2023-06-19T10:17:36;12.43;;;7.97;;
16667;SDS011;8447;52.630;4.734;2023-06-19T10:20:03;13.13;;;7.13;;
16667;SDS011;8447;52.630;4.734;2023-06-19T10:22:36;13.57;;;8.73;;
16667;SDS011;8447;52.630;4.734;2023-06-19T10:25:03;10.97;;;7.30;;
16667;SDS011;8447;52.630;4.734;2023-06-19T10:27:33;11.00;;;7.40;;
16667;SDS011;8447;52.630;4.734;2023-06-19T10:30:01;11.50;;;8.20;;
16667;SDS011;8447;52.630;4.734;2023-06-19T10:32:29;11.37;;;7.23;;
16667;SDS011;8447;52.630;4.734;2023-06-19T10:34:56;7.87;;;6.40;;
16667;SDS011;8447;52.630;4.734;2023-06-19T10:37:31;9.03;;;6.00;;
16667;SDS011;8447;52.630;4.734;2023-06-19T10:39:57;8.53;;;6.33;;
16667;SDS011;8447;52.630;4.734;2023-06-19T10:42:24;7.47;;;5.10;;
16667;SDS011;8447;52.630;4.734;2023-06-19T10:44:50;8.53;;;7.37;;
16667;SDS011;8447;52.630;4.734;2023-06-19T10:47:18;10.17;;;7.00;;
16667;SDS011;8447;52.630;4.734;2023-06-19T10:49:44;8.10;;;5.33;;
16667;SDS011;8447;52.630;4.734;2023-06-19T10:52:11;11.33;;;6.93;;
16667;SDS011;8447;52.630;4.734;2023-06-19T10:54:37;10.23;;;6.60;;
16667;SDS011;8447;52.630;4.734;2023-06-19T10:57:03;14.53;;;6.57;;
16667;SDS011;8447;52.630;4.734;2023-06-19T10:59:30;8.63;;;5.47;;
16667;SDS011;8447;52.630;4.734;2023-06-19T11:01:56;13.63;;;6.73;;
16667;SDS011;8447;52.630;4.734;2023-06-19T11:04:24;8.80;;;6.10;;
16667;SDS011;8447;52.630;4.734;2023-06-19T11:06:51;8.67;;;5.70;;
16667;SDS011;8447;52.630;4.734;2023-06-19T11:09:17;10.00;;;7.30;;
16667;SDS011;8447;52.630;4.734;2023-06-19T11:11:45;9.43;;;5.40;;
16667;SDS011;8447;52.630;4.734;2023-06-19T11:14:12;11.83;;;6.27;;
16667;SDS011;8447;52.630;4.734;2023-06-19T11:16:39;11.97;;;4.83;;
16667;SDS011;8447;52.630;4.734;2023-06-19T11:19:06;9.77;;;6.10;;
16667;SDS011;8447;52.630;4.734;2023-06-19T11:21:35;12.20;;;5.70;;
16667;SDS011;8447;52.630;4.734;2023-06-19T11:24:03;8.50;;;5.57;;
16667;SDS011;8447;52.630;4.734;2023-06-19T11:26:33;7.73;;;5.20;;
16667;SDS011;8447;52.630;4.734;2023-06-19T11:28:59;9.93;;;5.17;;
16667;SDS011;8447;52.630;4.734;2023-06-19T11:31:26;9.20;;;5.13;;
16667;SDS011;8447;52.630;4.734;2023-06-19T11:33:57;8.30;;;5.77;;
16667;SDS011;8447;52.630;4.734;2023-06-19T11:36:23;9.13;;;5.47;;
16667;SDS011;8447;52.630;4.734;2023-06-19T11:38:52;8.50;;;5.37;;
16667;SDS011;8447;52.630;4.734;2023-06-19T11:41:24;8.97;;;5.50;;
16667;SDS011;8447;52.630;4.734;2023-06-19T11:43:51;7.30;;;4.80;;
16667;SDS011;8447;52.630;4.734;2023-06-19T11:46:27;8.13;;;5.07;;
16667;SDS011;8447;52.630;4.734;2023-06-19T11:48:54;8.47;;;4.80;;
16667;SDS011;8447;52.630;4.734;2023-06-19T11:51:21;9.83;;;5.07;;
16667;SDS011;8447;52.630;4.734;2023-06-19T11:53:47;8.20;;;5.30;;
16667;SDS011;8447;52.630;4.734;2023-06-19T11:56:15;10.03;;;5.40;;
16667;SDS011;8447;52.630;4.734;2023-06-19T11:58:41;10.93;;;5.20;;
16667;SDS011;8447;52.630;4.734;2023-06-19T12:01:10;8.93;;;4.90;;
16667;SDS011;8447;52.630;4.734;2023-06-19T12:03:36;8.90;;;4.77;;
16667;SDS011;8447;52.630;4.734;2023-06-19T12:06:03;9.10;;;5.40;;
16667;SDS011;8447;52.630;4.734;2023-06-19T12:08:29;8.07;;;4.73;;
16667;SDS011;8447;52.630;4.734;2023-06-19T12:10:56;8.70;;;5.63;;
16667;SDS011;8447;52.630;4.734;2023-06-19T12:13:23;5.80;;;4.20;;
16667;SDS011;8447;52.630;4.734;2023-06-19T12:15:50;7.07;;;4.90;;
16667;SDS011;8447;52.630;4.734;2023-06-19T12:18:16;7.07;;;3.37;;
16667;SDS011;8447;52.630;4.734;2023-06-19T12:20:42;8.10;;;4.33;;
16667;SDS011;8447;52.630;4.734;2023-06-19T12:23:09;9.30;;;5.23;;
16667;SDS011;8447;52.630;4.734;2023-06-19T12:25:35;5.90;;;4.97;;
16667;SDS011;8447;52.630;4.734;2023-06-19T12:28:02;5.23;;;3.30;;
16667;SDS011;8447;52.630;4.734;2023-06-19T12:30:34;8.67;;;4.33;;
16667;SDS011;8447;52.630;4.734;2023-06-19T12:33:00;8.17;;;5.63;;
16667;SDS011;8447;52.630;4.734;2023-06-19T12:35:28;8.17;;;4.83;;
16667;SDS011;8447;52.630;4.734;2023-06-19T12:37:54;9.10;;;5.73;;
16667;SDS011;8447;52.630;4.734;2023-06-19T12:40:21;9.57;;;4.70;;
16667;SDS011;8447;52.630;4.734;2023-06-19T12:42:48;8.90;;;5.60;;
16667;SDS011;8447;52.630;4.734;2023-06-19T12:45:15;12.17;;;4.70;;
16667;SDS011;8447;52.630;4.734;2023-06-19T12:47:43;8.13;;;5.17;;
16667;SDS011;8447;52.630;4.734;2023-06-19T12:50:09;8.40;;;5.47;;
16667;SDS011;8447;52.630;4.734;2023-06-19T12:52:37;11.80;;;6.77;;
16667;SDS011;8447;52.630;4.734;2023-06-19T12:55:03;9.77;;;4.90;;
16667;SDS011;8447;52.630;4.734;2023-06-19T12:57:30;6.97;;;4.80;;
16667;SDS011;8447;52.630;4.734;2023-06-19T12:59:56;9.53;;;5.53;;
16667;SDS011;8447;52.630;4.734;2023-06-19T13:02:22;9.50;;;5.40;;
16667;SDS011;8447;52.630;4.734;2023-06-19T13:04:51;7.80;;;4.50;;
16667;SDS011;8447;52.630;4.734;2023-06-19T13:07:18;5.30;;;3.90;;
16667;SDS011;8447;52.630;4.734;2023-06-19T13:09:44;6.67;;;4.03;;
16667;SDS011;8447;52.630;4.734;2023-06-19T13:12:10;3.23;;;2.33;;
16667;SDS011;8447;52.630;4.734;2023-06-19T13:14:37;5.20;;;3.37;;
16667;SDS011;8447;52.630;4.734;2023-06-19T13:17:03;8.73;;;5.10;;
16667;SDS011;8447;52.630;4.734;2023-06-19T13:19:29;8.73;;;4.03;;
16667;SDS011;8447;52.630;4.734;2023-06-19T13:21:57;8.07;;;4.27;;
16667;SDS011;8447;52.630;4.734;2023-06-19T13:24:24;8.20;;;4.30;;
16667;SDS011;8447;52.630;4.734;2023-06-19T13:26:52;4.50;;;3.90;;
16667;SDS011;8447;52.630;4.734;2023-06-19T13:29:18;4.83;;;3.67;;
16667;SDS011;8447;52.630;4.734;2023-06-19T13:31:45;6.43;;;3.97;;
16667;SDS011;8447;52.630;4.734;2023-06-19T13:34:11;5.77;;;4.23;;
16667;SDS011;8447;52.630;4.734;2023-06-19T13:36:38;5.80;;;4.20;;
16667;SDS011;8447;52.630;4.734;2023-06-19T13:39:06;5.40;;;3.97;;
16667;SDS011;8447;52.630;4.734;2023-06-19T13:41:32;5.23;;;4.00;;
16667;SDS011;8447;52.630;4.734;2023-06-19T13:43:59;3.83;;;2.70;;
16667;SDS011;8447;52.630;4.734;2023-06-19T13:46:26;6.80;;;4.03;;
16667;SDS011;8447;52.630;4.734;2023-06-19T13:48:52;7.13;;;3.90;;
16667;SDS011;8447;52.630;4.734;2023-06-19T13:51:19;8.20;;;3.50;;
16667;SDS011;8447;52.630;4.734;2023-06-19T13:53:45;6.10;;;3.90;;
16667;SDS011;8447;52.630;4.734;2023-06-19T13:56:14;7.40;;;4.23;;
16667;SDS011;8447;52.630;4.734;2023-06-19T13:58:40;4.20;;;3.33;;
16667;SDS011;8447;52.630;4.734;2023-06-19T14:01:07;5.43;;;3.33;;
16667;SDS011;8447;52.630;4.734;2023-06-19T14:03:33;4.33;;;3.20;;
16667;SDS011;8447;52.630;4.734;2023-06-19T14:06:00;6.03;;;3.50;;
16667;SDS011;8447;52.630;4.734;2023-06-19T14:08:26;4.83;;;3.63;;
16667;SDS011;8447;52.630;4.734;2023-06-19T14:10:53;6.90;;;3.67;;
16667;SDS011;8447;52.630;4.734;2023-06-19T14:13:21;6.73;;;3.80;;
16667;SDS011;8447;52.630;4.734;2023-06-19T14:15:47;7.33;;;3.43;;
16667;SDS011;8447;52.630;4.734;2023-06-19T14:18:13;6.73;;;3.00;;
16667;SDS011;8447;52.630;4.734;2023-06-19T14:20:40;6.93;;;3.10;;
16667;SDS011;8447;52.630;4.734;2023-06-19T14:23:07;7.23;;;3.50;;
16667;SDS011;8447;52.630;4.734;2023-06-19T14:25:33;6.57;;;3.93;;
16667;SDS011;8447;52.630;4.734;2023-06-19T14:28:00;5.70;;;2.80;;
16667;SDS011;8447;52.630;4.734;2023-06-19T14:30:27;7.20;;;2.97;;
16667;SDS011;8447;52.630;4.734;2023-06-19T14:32:54;6.53;;;3.70;;
16667;SDS011;8447;52.630;4.734;2023-06-19T14:35:20;6.00;;;3.80;;
16667;SDS011;8447;52.630;4.734;2023-06-19T14:37:46;6.13;;;2.73;;
16667;SDS011;8447;52.630;4.734;2023-06-19T14:40:13;5.47;;;4.10;;
16667;SDS011;8447;52.630;4.734;2023-06-19T14:42:39;8.30;;;3.80;;
16667;SDS011;8447;52.630;4.734;2023-06-19T14:45:06;7.60;;;3.27;;
16667;SDS011;8447;52.630;4.734;2023-06-19T14:47:34;6.40;;;3.67;;
16667;SDS011;8447;52.630;4.734;2023-06-19T14:50:01;5.57;;;3.37;;
16667;SDS011;8447;52.630;4.734;2023-06-19T14:52:27;6.63;;;3.90;;
16667;SDS011;8447;52.630;4.734;2023-06-19T14:54:55;6.27;;;4.00;;